sensor_id;sensor_type;location;lat;lon;timestamp;P1;durP1;ratioP1;P2;durP2;ratioP2
75542;SDS011;64129;53.508;10.476;2023-10-08T00:00:29;9.35;;;1.90;;
75542;SDS011;64129;53.508;10.476;2023-10-08T00:03:34;5.57;;;1.83;;
75542;SDS011;64129;53.508;10.476;2023-10-08T00:06:07;8.20;;;1.70;;
75542;SDS011;64129;53.508;10.476;2023-10-08T00:08:41;6.00;;;1.80;;
75542;SDS011;64129;53.508;10.476;2023-10-08T00:11:12;4.28;;;1.80;;
75542;SDS011;64129;53.508;10.476;2023-10-08T00:13:43;5.28;;;1.73;;
75542;SDS011;64129;53.508;10.476;2023-10-08T00:16:13;7.18;;;1.65;;
75542;SDS011;64129;53.508;10.476;2023-10-08T00:18:45;7.05;;;1.33;;
75542;SDS011;64129;53.508;10.476;2023-10-08T00:21:24;5.72;;;1.63;;
75542;SDS011;64129;53.508;10.476;2023-10-08T00:23:57;6.60;;;1.38;;
75542;SDS011;64129;53.508;10.476;2023-10-08T00:26:28;6.10;;;1.80;;
75542;SDS011;64129;53.508;10.476;2023-10-08T00:28:59;8.35;;;2.15;;
75542;SDS011;64129;53.508;10.476;2023-10-08T00:31:34;5.70;;;1.50;;
75542;SDS011;64129;53.508;10.476;2023-10-08T00:34:11;7.22;;;1.80;;
75542;SDS011;64129;53.508;10.476;2023-10-08T00:36:48;6.38;;;1.90;;
75542;SDS011;64129;53.508;10.476;2023-10-08T00:39:18;5.35;;;1.70;;
75542;SDS011;64129;53.508;10.476;2023-10-08T00:41:54;4.93;;;1.70;;
75542;SDS011;64129;53.508;10.476;2023-10-08T00:44:36;7.68;;;1.83;;
75542;SDS011;64129;53.508;10.476;2023-10-08T00:47:28;5.40;;;1.65;;
75542;SDS011;64129;53.508;10.476;2023-10-08T00:50:02;6.38;;;1.98;;
75542;SDS011;64129;53.508;10.476;2023-10-08T00:55:32;5.78;;;1.60;;
75542;SDS011;64129;53.508;10.476;2023-10-08T00:58:07;5.45;;;1.70;;
75542;SDS011;64129;53.508;10.476;2023-10-08T01:00:37;4.93;;;1.70;;
75542;SDS011;64129;53.508;10.476;2023-10-08T01:03:09;7.22;;;1.80;;
75542;SDS011;64129;53.508;10.476;2023-10-08T01:05:44;6.78;;;1.70;;
75542;SDS011;64129;53.508;10.476;2023-10-08T01:08:30;5.30;;;2.17;;
75542;SDS011;64129;53.508;10.476;2023-10-08T01:11:19;6.85;;;1.75;;
75542;SDS011;64129;53.508;10.476;2023-10-08T01:14:18;7.05;;;1.65;;
75542;SDS011;64129;53.508;10.476;2023-10-08T01:16:56;5.70;;;1.63;;
75542;SDS011;64129;53.508;10.476;2023-10-08T01:19:26;6.68;;;1.88;;
75542;SDS011;64129;53.508;10.476;2023-10-08T01:22:03;8.00;;;1.55;;
75542;SDS011;64129;53.508;10.476;2023-10-08T01:24:52;7.15;;;2.10;;
75542;SDS011;64129;53.508;10.476;2023-10-08T01:27:30;5.82;;;2.03;;
75542;SDS011;64129;53.508;10.476;2023-10-08T01:30:01;6.40;;;1.80;;
75542;SDS011;64129;53.508;10.476;2023-10-08T01:32:53;4.85;;;1.77;;
75542;SDS011;64129;53.508;10.476;2023-10-08T01:35:29;5.53;;;2.05;;
75542;SDS011;64129;53.508;10.476;2023-10-08T01:38:07;5.18;;;1.73;;
75542;SDS011;64129;53.508;10.476;2023-10-08T01:40:42;4.63;;;1.90;;
75542;SDS011;64129;53.508;10.476;2023-10-08T01:43:13;3.65;;;1.40;;
75542;SDS011;64129;53.508;10.476;2023-10-08T01:45:40;6.30;;;1.88;;
75542;SDS011;64129;53.508;10.476;2023-10-08T01:48:07;4.93;;;1.85;;
75542;SDS011;64129;53.508;10.476;2023-10-08T01:50:42;6.30;;;1.63;;
75542;SDS011;64129;53.508;10.476;2023-10-08T01:53:20;5.70;;;1.60;;
75542;SDS011;64129;53.508;10.476;2023-10-08T01:55:58;3.30;;;1.33;;
75542;SDS011;64129;53.508;10.476;2023-10-08T01:58:36;4.65;;;1.70;;
75542;SDS011;64129;53.508;10.476;2023-10-08T02:01:10;8.18;;;1.67;;
75542;SDS011;64129;53.508;10.476;2023-10-08T02:03:45;6.90;;;1.63;;
75542;SDS011;64129;53.508;10.476;2023-10-08T02:06:17;6.53;;;1.30;;
75542;SDS011;64129;53.508;10.476;2023-10-08T02:08:47;8.63;;;2.22;;
75542;SDS011;64129;53.508;10.476;2023-10-08T02:11:17;9.52;;;2.53;;
75542;SDS011;64129;53.508;10.476;2023-10-08T02:13:54;5.72;;;1.65;;
75542;SDS011;64129;53.508;10.476;2023-10-08T02:16:25;6.72;;;1.50;;
75542;SDS011;64129;53.508;10.476;2023-10-08T02:19:07;8.10;;;1.83;;
75542;SDS011;64129;53.508;10.476;2023-10-08T02:21:40;4.88;;;1.60;;
75542;SDS011;64129;53.508;10.476;2023-10-08T02:24:30;3.30;;;1.67;;
75542;SDS011;64129;53.508;10.476;2023-10-08T02:27:13;6.75;;;1.75;;
75542;SDS011;64129;53.508;10.476;2023-10-08T02:29:45;6.30;;;1.50;;
75542;SDS011;64129;53.508;10.476;2023-10-08T02:32:21;6.82;;;1.63;;
75542;SDS011;64129;53.508;10.476;2023-10-08T02:34:58;6.10;;;1.50;;
75542;SDS011;64129;53.508;10.476;2023-10-08T02:37:48;4.00;;;1.30;;
75542;SDS011;64129;53.508;10.476;2023-10-08T02:40:19;5.55;;;1.40;;
75542;SDS011;64129;53.508;10.476;2023-10-08T02:43:14;6.00;;;1.30;;
75542;SDS011;64129;53.508;10.476;2023-10-08T02:45:46;5.88;;;1.50;;
75542;SDS011;64129;53.508;10.476;2023-10-08T02:48:48;5.07;;;1.23;;
75542;SDS011;64129;53.508;10.476;2023-10-08T02:51:15;4.53;;;1.27;;
75542;SDS011;64129;53.508;10.476;2023-10-08T02:53:42;5.20;;;1.67;;
75542;SDS011;64129;53.508;10.476;2023-10-08T02:56:10;3.17;;;1.20;;
75542;SDS011;64129;53.508;10.476;2023-10-08T02:58:45;2.53;;;1.20;;
75542;SDS011;64129;53.508;10.476;2023-10-08T03:01:24;8.23;;;1.27;;
75542;SDS011;64129;53.508;10.476;2023-10-08T03:03:53;7.75;;;1.42;;
75542;SDS011;64129;53.508;10.476;2023-10-08T03:06:32;5.53;;;1.48;;
75542;SDS011;64129;53.508;10.476;2023-10-08T03:08:59;7.50;;;1.60;;
75542;SDS011;64129;53.508;10.476;2023-10-08T03:11:45;4.18;;;1.73;;
75542;SDS011;64129;53.508;10.476;2023-10-08T03:14:21;6.07;;;1.60;;
75542;SDS011;64129;53.508;10.476;2023-10-08T03:17:03;5.95;;;1.45;;
75542;SDS011;64129;53.508;10.476;2023-10-08T03:19:39;5.57;;;1.80;;
75542;SDS011;64129;53.508;10.476;2023-10-08T03:22:20;2.92;;;1.13;;
75542;SDS011;64129;53.508;10.476;2023-10-08T03:24:51;6.43;;;1.48;;
75542;SDS011;64129;53.508;10.476;2023-10-08T03:27:21;4.40;;;1.50;;
75542;SDS011;64129;53.508;10.476;2023-10-08T03:29:59;6.28;;;1.55;;
75542;SDS011;64129;53.508;10.476;2023-10-08T03:32:29;5.38;;;1.45;;
75542;SDS011;64129;53.508;10.476;2023-10-08T03:35:01;5.10;;;1.20;;
75542;SDS011;64129;53.508;10.476;2023-10-08T03:37:41;4.45;;;1.30;;
75542;SDS011;64129;53.508;10.476;2023-10-08T03:40:09;3.38;;;1.27;;
75542;SDS011;64129;53.508;10.476;2023-10-08T03:43:10;2.97;;;1.20;;
75542;SDS011;64129;53.508;10.476;2023-10-08T03:45:50;4.43;;;1.25;;
75542;SDS011;64129;53.508;10.476;2023-10-08T03:48:29;6.72;;;1.40;;
75542;SDS011;64129;53.508;10.476;2023-10-08T03:51:11;3.58;;;1.23;;
75542;SDS011;64129;53.508;10.476;2023-10-08T03:53:48;6.13;;;1.15;;
75542;SDS011;64129;53.508;10.476;2023-10-08T03:56:43;3.95;;;1.45;;
75542;SDS011;64129;53.508;10.476;2023-10-08T03:59:20;4.57;;;1.33;;
75542;SDS011;64129;53.508;10.476;2023-10-08T04:01:52;3.65;;;1.17;;
75542;SDS011;64129;53.508;10.476;2023-10-08T04:04:21;4.20;;;1.27;;
75542;SDS011;64129;53.508;10.476;2023-10-08T04:07:20;3.75;;;1.30;;
75542;SDS011;64129;53.508;10.476;2023-10-08T04:10:03;2.92;;;1.40;;
75542;SDS011;64129;53.508;10.476;2023-10-08T04:12:39;6.72;;;1.55;;
75542;SDS011;64129;53.508;10.476;2023-10-08T04:15:18;3.63;;;0.98;;
75542;SDS011;64129;53.508;10.476;2023-10-08T04:17:47;3.70;;;1.33;;
75542;SDS011;64129;53.508;10.476;2023-10-08T04:20:20;1.85;;;1.08;;
75542;SDS011;64129;53.508;10.476;2023-10-08T04:23:13;3.08;;;1.50;;
75542;SDS011;64129;53.508;10.476;2023-10-08T04:25:50;3.83;;;1.42;;
75542;SDS011;64129;53.508;10.476;2023-10-08T04:28:21;3.92;;;1.17;;
75542;SDS011;64129;53.508;10.476;2023-10-08T04:30:53;4.70;;;1.20;;
75542;SDS011;64129;53.508;10.476;2023-10-08T04:33:43;4.93;;;1.20;;
75542;SDS011;64129;53.508;10.476;2023-10-08T04:36:20;4.22;;;1.20;;
75542;SDS011;64129;53.508;10.476;2023-10-08T04:38:51;2.88;;;1.20;;
75542;SDS011;64129;53.508;10.476;2023-10-08T04:41:23;2.92;;;1.20;;
75542;SDS011;64129;53.508;10.476;2023-10-08T04:46:36;3.92;;;1.00;;
75542;SDS011;64129;53.508;10.476;2023-10-08T04:49:08;3.38;;;0.80;;
75542;SDS011;64129;53.508;10.476;2023-10-08T04:54:25;2.30;;;1.20;;
75542;SDS011;64129;53.508;10.476;2023-10-08T04:57:13;3.58;;;1.15;;
75542;SDS011;64129;53.508;10.476;2023-10-08T04:59:54;6.50;;;1.25;;
75542;SDS011;64129;53.508;10.476;2023-10-08T05:02:31;3.25;;;1.23;;
75542;SDS011;64129;53.508;10.476;2023-10-08T05:05:14;5.28;;;1.35;;
75542;SDS011;64129;53.508;10.476;2023-10-08T05:07:55;8.07;;;1.23;;
75542;SDS011;64129;53.508;10.476;2023-10-08T05:10:30;4.00;;;1.27;;
75542;SDS011;64129;53.508;10.476;2023-10-08T05:13:24;7.80;;;1.70;;
75542;SDS011;64129;53.508;10.476;2023-10-08T05:16:08;6.82;;;1.08;;
75542;SDS011;64129;53.508;10.476;2023-10-08T05:18:59;6.65;;;1.75;;
75542;SDS011;64129;53.508;10.476;2023-10-08T05:22:06;5.00;;;1.48;;
75542;SDS011;64129;53.508;10.476;2023-10-08T05:24:55;2.92;;;1.27;;
75542;SDS011;64129;53.508;10.476;2023-10-08T05:27:43;7.00;;;1.17;;
75542;SDS011;64129;53.508;10.476;2023-10-08T05:30:36;4.13;;;1.05;;
75542;SDS011;64129;53.508;10.476;2023-10-08T05:33:28;5.28;;;1.08;;
75542;SDS011;64129;53.508;10.476;2023-10-08T05:36:25;4.22;;;1.13;;
75542;SDS011;64129;53.508;10.476;2023-10-08T05:39:04;3.63;;;1.02;;
75542;SDS011;64129;53.508;10.476;2023-10-08T05:41:55;2.47;;;1.00;;
75542;SDS011;64129;53.508;10.476;2023-10-08T05:44:45;3.25;;;1.08;;
75542;SDS011;64129;53.508;10.476;2023-10-08T05:47:47;2.28;;;0.80;;
75542;SDS011;64129;53.508;10.476;2023-10-08T05:50:37;6.72;;;1.35;;
75542;SDS011;64129;53.508;10.476;2023-10-08T05:53:31;1.77;;;0.90;;
75542;SDS011;64129;53.508;10.476;2023-10-08T05:56:12;3.97;;;1.08;;
75542;SDS011;64129;53.508;10.476;2023-10-08T05:59:10;3.72;;;1.00;;
75542;SDS011;64129;53.508;10.476;2023-10-08T06:01:46;3.10;;;1.15;;
75542;SDS011;64129;53.508;10.476;2023-10-08T06:04:13;3.47;;;1.08;;
75542;SDS011;64129;53.508;10.476;2023-10-08T06:07:01;4.50;;;1.15;;
75542;SDS011;64129;53.508;10.476;2023-10-08T06:09:50;5.68;;;1.08;;
75542;SDS011;64129;53.508;10.476;2023-10-08T06:12:32;5.22;;;1.00;;
75542;SDS011;64129;53.508;10.476;2023-10-08T06:15:11;4.80;;;1.25;;
75542;SDS011;64129;53.508;10.476;2023-10-08T06:17:38;4.93;;;1.15;;
75542;SDS011;64129;53.508;10.476;2023-10-08T06:20:35;4.03;;;1.30;;
75542;SDS011;64129;53.508;10.476;2023-10-08T06:23:11;4.20;;;2.03;;
75542;SDS011;64129;53.508;10.476;2023-10-08T06:25:47;11.70;;;2.33;;
75542;SDS011;64129;53.508;10.476;2023-10-08T06:28:32;6.35;;;2.05;;
75542;SDS011;64129;53.508;10.476;2023-10-08T06:31:07;7.03;;;1.90;;
75542;SDS011;64129;53.508;10.476;2023-10-08T06:33:56;4.00;;;1.70;;
75542;SDS011;64129;53.508;10.476;2023-10-08T06:36:24;3.75;;;1.50;;
75542;SDS011;64129;53.508;10.476;2023-10-08T06:38:59;3.92;;;1.40;;
75542;SDS011;64129;53.508;10.476;2023-10-08T06:41:26;4.25;;;1.20;;
75542;SDS011;64129;53.508;10.476;2023-10-08T06:44:00;2.38;;;1.40;;
75542;SDS011;64129;53.508;10.476;2023-10-08T06:46:30;4.28;;;1.10;;
75542;SDS011;64129;53.508;10.476;2023-10-08T06:49:03;2.90;;;1.13;;
75542;SDS011;64129;53.508;10.476;2023-10-08T06:51:53;2.95;;;1.10;;
75542;SDS011;64129;53.508;10.476;2023-10-08T06:54:33;5.32;;;1.27;;
75542;SDS011;64129;53.508;10.476;2023-10-08T06:57:12;3.72;;;1.20;;
75542;SDS011;64129;53.508;10.476;2023-10-08T06:59:40;2.85;;;1.10;;
75542;SDS011;64129;53.508;10.476;2023-10-08T07:02:20;2.67;;;1.35;;
75542;SDS011;64129;53.508;10.476;2023-10-08T07:04:51;3.67;;;1.17;;
75542;SDS011;64129;53.508;10.476;2023-10-08T07:07:24;3.13;;;1.33;;
75542;SDS011;64129;53.508;10.476;2023-10-08T07:09:55;3.47;;;1.13;;
75542;SDS011;64129;53.508;10.476;2023-10-08T07:12:30;2.60;;;0.90;;
75542;SDS011;64129;53.508;10.476;2023-10-08T07:15:07;7.72;;;1.98;;
75542;SDS011;64129;53.508;10.476;2023-10-08T07:17:39;2.60;;;1.20;;
75542;SDS011;64129;53.508;10.476;2023-10-08T07:20:23;3.78;;;0.98;;
75542;SDS011;64129;53.508;10.476;2023-10-08T07:22:57;3.15;;;1.10;;
75542;SDS011;64129;53.508;10.476;2023-10-08T07:25:30;2.53;;;0.90;;
75542;SDS011;64129;53.508;10.476;2023-10-08T07:28:10;4.45;;;1.35;;
75542;SDS011;64129;53.508;10.476;2023-10-08T07:30:40;2.38;;;1.00;;
75542;SDS011;64129;53.508;10.476;2023-10-08T07:33:46;5.20;;;1.17;;
75542;SDS011;64129;53.508;10.476;2023-10-08T07:36:20;4.50;;;0.98;;
75542;SDS011;64129;53.508;10.476;2023-10-08T07:38:55;3.42;;;0.88;;
75542;SDS011;64129;53.508;10.476;2023-10-08T07:41:25;2.92;;;0.63;;
75542;SDS011;64129;53.508;10.476;2023-10-08T07:44:12;3.65;;;1.10;;
75542;SDS011;64129;53.508;10.476;2023-10-08T07:46:41;5.25;;;1.33;;
75542;SDS011;64129;53.508;10.476;2023-10-08T07:49:10;3.28;;;0.70;;
75542;SDS011;64129;53.508;10.476;2023-10-08T07:51:41;4.65;;;1.10;;
75542;SDS011;64129;53.508;10.476;2023-10-08T07:54:08;5.93;;;1.25;;
75542;SDS011;64129;53.508;10.476;2023-10-08T07:56:43;2.63;;;0.70;;
75542;SDS011;64129;53.508;10.476;2023-10-08T07:59:13;2.63;;;0.73;;
75542;SDS011;64129;53.508;10.476;2023-10-08T08:01:46;2.75;;;1.30;;
75542;SDS011;64129;53.508;10.476;2023-10-08T08:04:19;3.13;;;1.17;;
75542;SDS011;64129;53.508;10.476;2023-10-08T08:06:50;2.45;;;0.95;;
75542;SDS011;64129;53.508;10.476;2023-10-08T08:09:19;3.17;;;0.93;;
75542;SDS011;64129;53.508;10.476;2023-10-08T08:11:46;3.10;;;1.00;;
75542;SDS011;64129;53.508;10.476;2023-10-08T08:14:14;3.28;;;1.02;;
75542;SDS011;64129;53.508;10.476;2023-10-08T08:16:56;4.65;;;1.10;;
75542;SDS011;64129;53.508;10.476;2023-10-08T08:19:26;1.80;;;0.80;;
75542;SDS011;64129;53.508;10.476;2023-10-08T08:21:53;5.13;;;1.15;;
75542;SDS011;64129;53.508;10.476;2023-10-08T08:24:36;2.22;;;0.63;;
75542;SDS011;64129;53.508;10.476;2023-10-08T08:27:08;1.90;;;0.70;;
75542;SDS011;64129;53.508;10.476;2023-10-08T08:29:43;2.85;;;1.00;;
75542;SDS011;64129;53.508;10.476;2023-10-08T08:32:20;2.85;;;0.70;;
75542;SDS011;64129;53.508;10.476;2023-10-08T08:35:09;1.55;;;0.80;;
75542;SDS011;64129;53.508;10.476;2023-10-08T08:37:46;4.65;;;0.80;;
75542;SDS011;64129;53.508;10.476;2023-10-08T08:40:21;2.53;;;0.80;;
75542;SDS011;64129;53.508;10.476;2023-10-08T08:42:59;2.97;;;0.73;;
75542;SDS011;64129;53.508;10.476;2023-10-08T08:45:45;4.20;;;1.00;;
75542;SDS011;64129;53.508;10.476;2023-10-08T08:48:20;2.33;;;0.80;;
75542;SDS011;64129;53.508;10.476;2023-10-08T08:53:15;2.60;;;0.88;;
75542;SDS011;64129;53.508;10.476;2023-10-08T08:55:45;2.50;;;0.80;;
75542;SDS011;64129;53.508;10.476;2023-10-08T08:58:28;3.97;;;1.08;;
75542;SDS011;64129;53.508;10.476;2023-10-08T09:01:01;3.38;;;0.90;;
75542;SDS011;64129;53.508;10.476;2023-10-08T09:03:44;5.07;;;1.00;;
75542;SDS011;64129;53.508;10.476;2023-10-08T09:06:16;9.18;;;1.38;;
75542;SDS011;64129;53.508;10.476;2023-10-08T09:08:46;2.63;;;0.98;;
75542;SDS011;64129;53.508;10.476;2023-10-08T09:11:22;2.90;;;1.40;;
75542;SDS011;64129;53.508;10.476;2023-10-08T09:13:56;3.22;;;0.90;;
75542;SDS011;64129;53.508;10.476;2023-10-08T09:16:34;2.45;;;1.00;;
75542;SDS011;64129;53.508;10.476;2023-10-08T09:19:28;3.72;;;1.00;;
75542;SDS011;64129;53.508;10.476;2023-10-08T09:24:51;3.38;;;0.93;;
75542;SDS011;64129;53.508;10.476;2023-10-08T09:27:33;2.70;;;0.80;;
75542;SDS011;64129;53.508;10.476;2023-10-08T09:30:03;4.25;;;0.95;;
75542;SDS011;64129;53.508;10.476;2023-10-08T09:32:48;4.22;;;1.10;;
75542;SDS011;64129;53.508;10.476;2023-10-08T09:35:17;3.00;;;0.90;;
75542;SDS011;64129;53.508;10.476;2023-10-08T09:37:47;2.50;;;1.00;;
75542;SDS011;64129;53.508;10.476;2023-10-08T09:40:23;1.98;;;0.70;;
75542;SDS011;64129;53.508;10.476;2023-10-08T09:42:54;2.25;;;1.45;;
75542;SDS011;64129;53.508;10.476;2023-10-08T09:45:27;1.10;;;0.70;;
75542;SDS011;64129;53.508;10.476;2023-10-08T09:47:59;3.67;;;0.80;;
75542;SDS011;64129;53.508;10.476;2023-10-08T09:50:36;2.58;;;1.00;;
75542;SDS011;64129;53.508;10.476;2023-10-08T09:53:12;3.38;;;1.00;;
75542;SDS011;64129;53.508;10.476;2023-10-08T09:55:44;2.65;;;1.08;;
75542;SDS011;64129;53.508;10.476;2023-10-08T09:58:19;2.35;;;1.10;;
75542;SDS011;64129;53.508;10.476;2023-10-08T10:00:54;2.28;;;0.70;;
75542;SDS011;64129;53.508;10.476;2023-10-08T10:03:25;2.50;;;1.10;;
75542;SDS011;64129;53.508;10.476;2023-10-08T10:05:54;1.17;;;0.60;;
75542;SDS011;64129;53.508;10.476;2023-10-08T10:08:41;1.52;;;0.70;;
75542;SDS011;64129;53.508;10.476;2023-10-08T10:11:30;2.08;;;0.93;;
75542;SDS011;64129;53.508;10.476;2023-10-08T10:13:59;2.75;;;0.90;;
75542;SDS011;64129;53.508;10.476;2023-10-08T10:16:36;4.93;;;1.08;;
75542;SDS011;64129;53.508;10.476;2023-10-08T10:19:06;2.90;;;0.85;;
75542;SDS011;64129;53.508;10.476;2023-10-08T10:21:35;2.55;;;0.60;;
75542;SDS011;64129;53.508;10.476;2023-10-08T10:24:02;3.92;;;0.63;;
75542;SDS011;64129;53.508;10.476;2023-10-08T10:26:38;1.60;;;0.70;;
75542;SDS011;64129;53.508;10.476;2023-10-08T10:31:47;2.22;;;0.60;;
75542;SDS011;64129;53.508;10.476;2023-10-08T10:34:23;4.35;;;0.80;;
75542;SDS011;64129;53.508;10.476;2023-10-08T10:39:53;2.53;;;1.20;;
75542;SDS011;64129;53.508;10.476;2023-10-08T10:42:36;1.50;;;0.80;;
75542;SDS011;64129;53.508;10.476;2023-10-08T10:45:15;1.42;;;0.60;;
75542;SDS011;64129;53.508;10.476;2023-10-08T10:48:20;1.88;;;0.68;;
75542;SDS011;64129;53.508;10.476;2023-10-08T10:50:49;2.80;;;0.60;;
75542;SDS011;64129;53.508;10.476;2023-10-08T10:53:40;2.33;;;0.75;;
75542;SDS011;64129;53.508;10.476;2023-10-08T10:56:41;4.07;;;1.13;;
75542;SDS011;64129;53.508;10.476;2023-10-08T10:59:20;2.85;;;0.70;;
75542;SDS011;64129;53.508;10.476;2023-10-08T11:02:00;0.95;;;0.50;;
75542;SDS011;64129;53.508;10.476;2023-10-08T11:04:51;3.50;;;0.80;;
75542;SDS011;64129;53.508;10.476;2023-10-08T11:07:32;4.22;;;0.80;;
75542;SDS011;64129;53.508;10.476;2023-10-08T11:10:20;1.50;;;0.50;;
75542;SDS011;64129;53.508;10.476;2023-10-08T11:12:56;0.77;;;0.60;;
75542;SDS011;64129;53.508;10.476;2023-10-08T11:15:34;0.70;;;0.70;;
75542;SDS011;64129;53.508;10.476;2023-10-08T11:18:13;1.52;;;0.57;;
75542;SDS011;64129;53.508;10.476;2023-10-08T11:20:50;1.15;;;0.50;;
75542;SDS011;64129;53.508;10.476;2023-10-08T11:23:49;0.95;;;0.50;;
75542;SDS011;64129;53.508;10.476;2023-10-08T11:26:23;1.95;;;0.75;;
75542;SDS011;64129;53.508;10.476;2023-10-08T11:29:01;1.42;;;0.60;;
75542;SDS011;64129;53.508;10.476;2023-10-08T11:31:37;0.68;;;0.50;;
75542;SDS011;64129;53.508;10.476;2023-10-08T11:34:10;2.40;;;0.65;;
75542;SDS011;64129;53.508;10.476;2023-10-08T11:36:52;1.35;;;0.70;;
75542;SDS011;64129;53.508;10.476;2023-10-08T11:39:38;1.60;;;0.50;;
75542;SDS011;64129;53.508;10.476;2023-10-08T11:42:20;0.85;;;0.60;;
75542;SDS011;64129;53.508;10.476;2023-10-08T11:45:20;0.70;;;0.50;;
75542;SDS011;64129;53.508;10.476;2023-10-08T11:47:54;1.65;;;0.57;;
75542;SDS011;64129;53.508;10.476;2023-10-08T11:50:29;1.73;;;0.65;;
75542;SDS011;64129;53.508;10.476;2023-10-08T11:53:01;1.48;;;0.57;;
75542;SDS011;64129;53.508;10.476;2023-10-08T11:55:40;3.92;;;0.80;;
75542;SDS011;64129;53.508;10.476;2023-10-08T11:58:12;2.30;;;0.82;;
75542;SDS011;64129;53.508;10.476;2023-10-08T12:00:50;2.25;;;0.60;;
75542;SDS011;64129;53.508;10.476;2023-10-08T12:03:23;1.25;;;0.68;;
75542;SDS011;64129;53.508;10.476;2023-10-08T12:06:01;1.30;;;0.52;;
75542;SDS011;64129;53.508;10.476;2023-10-08T12:10:58;1.98;;;0.93;;
75542;SDS011;64129;53.508;10.476;2023-10-08T12:13:31;1.77;;;0.88;;
75542;SDS011;64129;53.508;10.476;2023-10-08T12:16:07;2.20;;;0.90;;
75542;SDS011;64129;53.508;10.476;2023-10-08T12:18:44;0.80;;;0.43;;
75542;SDS011;64129;53.508;10.476;2023-10-08T12:21:19;1.40;;;0.60;;
75542;SDS011;64129;53.508;10.476;2023-10-08T12:23:52;1.55;;;1.00;;
75542;SDS011;64129;53.508;10.476;2023-10-08T12:26:23;1.33;;;0.50;;
75542;SDS011;64129;53.508;10.476;2023-10-08T12:28:57;1.55;;;0.70;;
75542;SDS011;64129;53.508;10.476;2023-10-08T12:31:33;2.78;;;0.43;;
75542;SDS011;64129;53.508;10.476;2023-10-08T12:34:06;1.05;;;0.85;;
75542;SDS011;64129;53.508;10.476;2023-10-08T12:36:38;1.25;;;0.60;;
75542;SDS011;64129;53.508;10.476;2023-10-08T12:39:08;1.42;;;0.70;;
75542;SDS011;64129;53.508;10.476;2023-10-08T12:41:44;1.45;;;0.70;;
75542;SDS011;64129;53.508;10.476;2023-10-08T12:44:17;1.83;;;0.60;;
75542;SDS011;64129;53.508;10.476;2023-10-08T12:46:57;1.73;;;0.60;;
75542;SDS011;64129;53.508;10.476;2023-10-08T12:49:40;1.80;;;0.70;;
75542;SDS011;64129;53.508;10.476;2023-10-08T12:52:07;1.38;;;0.70;;
75542;SDS011;64129;53.508;10.476;2023-10-08T12:54:45;0.88;;;0.50;;
75542;SDS011;64129;53.508;10.476;2023-10-08T12:57:17;1.27;;;0.70;;
75542;SDS011;64129;53.508;10.476;2023-10-08T12:59:45;2.25;;;0.80;;
75542;SDS011;64129;53.508;10.476;2023-10-08T13:02:18;1.27;;;0.70;;
75542;SDS011;64129;53.508;10.476;2023-10-08T13:04:47;2.33;;;0.45;;
75542;SDS011;64129;53.508;10.476;2023-10-08T13:07:31;1.00;;;0.47;;
75542;SDS011;64129;53.508;10.476;2023-10-08T13:10:08;1.60;;;0.70;;
75542;SDS011;64129;53.508;10.476;2023-10-08T13:12:55;2.05;;;0.77;;
75542;SDS011;64129;53.508;10.476;2023-10-08T13:15:24;1.75;;;0.50;;
75542;SDS011;64129;53.508;10.476;2023-10-08T13:17:57;1.20;;;0.40;;
75542;SDS011;64129;53.508;10.476;2023-10-08T13:20:30;1.58;;;0.50;;
75542;SDS011;64129;53.508;10.476;2023-10-08T13:23:00;1.55;;;0.60;;
75542;SDS011;64129;53.508;10.476;2023-10-08T13:25:30;1.23;;;0.60;;
75542;SDS011;64129;53.508;10.476;2023-10-08T13:28:03;1.48;;;0.70;;
75542;SDS011;64129;53.508;10.476;2023-10-08T13:30:35;2.30;;;0.55;;
75542;SDS011;64129;53.508;10.476;2023-10-08T13:33:21;1.15;;;0.38;;
75542;SDS011;64129;53.508;10.476;2023-10-08T13:35:53;1.48;;;0.75;;
75542;SDS011;64129;53.508;10.476;2023-10-08T13:38:48;1.95;;;0.77;;
75542;SDS011;64129;53.508;10.476;2023-10-08T13:41:17;1.17;;;0.40;;
75542;SDS011;64129;53.508;10.476;2023-10-08T13:43:48;0.90;;;0.52;;
75542;SDS011;64129;53.508;10.476;2023-10-08T13:46:30;1.85;;;0.65;;
75542;SDS011;64129;53.508;10.476;2023-10-08T13:49:02;2.90;;;0.98;;
75542;SDS011;64129;53.508;10.476;2023-10-08T13:51:33;2.30;;;0.60;;
75542;SDS011;64129;53.508;10.476;2023-10-08T13:54:01;1.60;;;0.55;;
75542;SDS011;64129;53.508;10.476;2023-10-08T13:56:39;2.30;;;0.77;;
75542;SDS011;64129;53.508;10.476;2023-10-08T13:59:17;1.92;;;0.75;;
75542;SDS011;64129;53.508;10.476;2023-10-08T14:01:50;1.77;;;0.73;;
75542;SDS011;64129;53.508;10.476;2023-10-08T14:04:26;1.20;;;0.40;;
75542;SDS011;64129;53.508;10.476;2023-10-08T14:07:07;1.45;;;0.40;;
75542;SDS011;64129;53.508;10.476;2023-10-08T14:09:48;0.95;;;0.63;;
75542;SDS011;64129;53.508;10.476;2023-10-08T14:12:33;1.92;;;0.60;;
75542;SDS011;64129;53.508;10.476;2023-10-08T14:15:01;0.63;;;0.50;;
75542;SDS011;64129;53.508;10.476;2023-10-08T14:17:36;1.08;;;0.73;;
75542;SDS011;64129;53.508;10.476;2023-10-08T14:20:15;3.38;;;0.73;;
75542;SDS011;64129;53.508;10.476;2023-10-08T14:22:59;2.63;;;0.60;;
75542;SDS011;64129;53.508;10.476;2023-10-08T14:25:30;1.20;;;0.50;;
75542;SDS011;64129;53.508;10.476;2023-10-08T14:28:05;2.20;;;0.50;;
75542;SDS011;64129;53.508;10.476;2023-10-08T14:30:35;1.85;;;0.55;;
75542;SDS011;64129;53.508;10.476;2023-10-08T14:33:18;0.80;;;0.57;;
75542;SDS011;64129;53.508;10.476;2023-10-08T14:35:59;2.38;;;0.70;;
75542;SDS011;64129;53.508;10.476;2023-10-08T14:38:46;1.52;;;0.50;;
75542;SDS011;64129;53.508;10.476;2023-10-08T14:44:20;1.27;;;0.50;;
75542;SDS011;64129;53.508;10.476;2023-10-08T14:46:55;2.78;;;0.63;;
75542;SDS011;64129;53.508;10.476;2023-10-08T14:49:27;1.02;;;0.75;;
75542;SDS011;64129;53.508;10.476;2023-10-08T14:54:35;2.90;;;0.65;;
75542;SDS011;64129;53.508;10.476;2023-10-08T14:57:05;1.20;;;0.52;;
75542;SDS011;64129;53.508;10.476;2023-10-08T14:59:32;1.13;;;0.40;;
75542;SDS011;64129;53.508;10.476;2023-10-08T15:02:04;1.67;;;0.63;;
75542;SDS011;64129;53.508;10.476;2023-10-08T15:04:34;1.02;;;0.55;;
75542;SDS011;64129;53.508;10.476;2023-10-08T15:07:06;1.63;;;0.50;;
75542;SDS011;64129;53.508;10.476;2023-10-08T15:09:44;1.73;;;0.70;;
75542;SDS011;64129;53.508;10.476;2023-10-08T15:12:15;2.28;;;0.50;;
75542;SDS011;64129;53.508;10.476;2023-10-08T15:14:51;1.30;;;0.60;;
75542;SDS011;64129;53.508;10.476;2023-10-08T15:17:31;1.00;;;0.55;;
75542;SDS011;64129;53.508;10.476;2023-10-08T15:20:20;0.60;;;0.50;;
75542;SDS011;64129;53.508;10.476;2023-10-08T15:22:50;3.03;;;0.60;;
75542;SDS011;64129;53.508;10.476;2023-10-08T15:25:33;2.45;;;0.65;;
75542;SDS011;64129;53.508;10.476;2023-10-08T15:28:06;1.05;;;0.70;;
75542;SDS011;64129;53.508;10.476;2023-10-08T15:30:37;1.33;;;0.95;;
75542;SDS011;64129;53.508;10.476;2023-10-08T15:33:10;3.70;;;0.82;;
75542;SDS011;64129;53.508;10.476;2023-10-08T15:35:51;1.73;;;0.88;;
75542;SDS011;64129;53.508;10.476;2023-10-08T15:38:25;2.67;;;0.90;;
75542;SDS011;64129;53.508;10.476;2023-10-08T15:40:58;2.13;;;1.00;;
75542;SDS011;64129;53.508;10.476;2023-10-08T15:43:32;5.18;;;2.05;;
75542;SDS011;64129;53.508;10.476;2023-10-08T15:46:21;1.40;;;1.17;;
75542;SDS011;64129;53.508;10.476;2023-10-08T15:48:52;4.63;;;2.65;;
75542;SDS011;64129;53.508;10.476;2023-10-08T15:51:28;4.97;;;1.92;;
75542;SDS011;64129;53.508;10.476;2023-10-08T15:53:58;2.88;;;1.80;;
75542;SDS011;64129;53.508;10.476;2023-10-08T15:56:30;4.10;;;1.73;;
75542;SDS011;64129;53.508;10.476;2023-10-08T15:59:01;3.72;;;2.00;;